sensor_id;sensor_type;location;lat;lon;timestamp;P1;durP1;ratioP1;P2;durP2;ratioP2
13102;SDS011;52970;46.752;17.108;2023-03-26T00:01:04;27.23;;;12.95;;
13102;SDS011;52970;46.752;17.108;2023-03-26T00:03:30;20.27;;;10.98;;
13102;SDS011;52970;46.752;17.108;2023-03-26T00:08:27;14.00;;;7.05;;
13102;SDS011;52970;46.752;17.108;2023-03-26T00:10:52;12.73;;;6.60;;
13102;SDS011;52970;46.752;17.108;2023-03-26T00:13:17;7.20;;;4.32;;
13102;SDS011;52970;46.752;17.108;2023-03-26T00:15:43;8.38;;;4.80;;
13102;SDS011;52970;46.752;17.108;2023-03-26T00:18:08;5.70;;;4.32;;
13102;SDS011;52970;46.752;17.108;2023-03-26T00:20:33;6.32;;;4.50;;
13102;SDS011;52970;46.752;17.108;2023-03-26T00:22:58;4.00;;;3.47;;
13102;SDS011;52970;46.752;17.108;2023-03-26T00:25:27;6.15;;;3.45;;
13102;SDS011;52970;46.752;17.108;2023-03-26T00:27:53;3.80;;;3.40;;
13102;SDS011;52970;46.752;17.108;2023-03-26T00:30:18;3.30;;;3.00;;
13102;SDS011;52970;46.752;17.108;2023-03-26T00:32:44;3.85;;;3.33;;
13102;SDS011;52970;46.752;17.108;2023-03-26T00:35:10;4.05;;;3.63;;
13102;SDS011;52970;46.752;17.108;2023-03-26T00:37:37;7.38;;;3.97;;
13102;SDS011;52970;46.752;17.108;2023-03-26T00:40:02;4.93;;;3.72;;
13102;SDS011;52970;46.752;17.108;2023-03-26T00:42:32;5.97;;;4.45;;
13102;SDS011;52970;46.752;17.108;2023-03-26T00:44:58;8.43;;;4.68;;
13102;SDS011;52970;46.752;17.108;2023-03-26T00:47:23;6.60;;;4.30;;
13102;SDS011;52970;46.752;17.108;2023-03-26T00:49:49;6.50;;;4.53;;
13102;SDS011;52970;46.752;17.108;2023-03-26T00:52:15;8.32;;;4.05;;
13102;SDS011;52970;46.752;17.108;2023-03-26T00:54:46;4.45;;;3.45;;
13102;SDS011;52970;46.752;17.108;2023-03-26T00:57:12;4.30;;;3.70;;
13102;SDS011;52970;46.752;17.108;2023-03-26T00:59:40;3.95;;;3.50;;
13102;SDS011;52970;46.752;17.108;2023-03-26T01:02:06;4.47;;;3.72;;
13102;SDS011;52970;46.752;17.108;2023-03-26T01:04:34;4.78;;;3.60;;
13102;SDS011;52970;46.752;17.108;2023-03-26T01:07:02;3.28;;;2.97;;
13102;SDS011;52970;46.752;17.108;2023-03-26T01:09:30;5.03;;;3.60;;
13102;SDS011;52970;46.752;17.108;2023-03-26T01:11:57;4.15;;;3.42;;
13102;SDS011;52970;46.752;17.108;2023-03-26T01:14:23;4.18;;;3.53;;
13102;SDS011;52970;46.752;17.108;2023-03-26T01:21:41;2.97;;;2.75;;
13102;SDS011;52970;46.752;17.108;2023-03-26T01:24:07;3.13;;;2.92;;
13102;SDS011;52970;46.752;17.108;2023-03-26T01:26:51;3.80;;;3.25;;
13102;SDS011;52970;46.752;17.108;2023-03-26T01:31:55;4.68;;;3.72;;
13102;SDS011;52970;46.752;17.108;2023-03-26T01:34:48;3.90;;;3.40;;
13102;SDS011;52970;46.752;17.108;2023-03-26T01:40:05;4.00;;;3.60;;
13102;SDS011;52970;46.752;17.108;2023-03-26T01:45:33;4.60;;;3.80;;
13102;SDS011;52970;46.752;17.108;2023-03-26T01:47:58;3.83;;;3.53;;
13102;SDS011;52970;46.752;17.108;2023-03-26T01:50:24;3.40;;;3.20;;
13102;SDS011;52970;46.752;17.108;2023-03-26T01:52:49;4.32;;;3.88;;
13102;SDS011;52970;46.752;17.108;2023-03-26T01:55:14;5.10;;;3.80;;
13102;SDS011;52970;46.752;17.108;2023-03-26T02:00:26;4.10;;;3.70;;
13102;SDS011;52970;46.752;17.108;2023-03-26T02:05:38;5.20;;;3.97;;
13102;SDS011;52970;46.752;17.108;2023-03-26T02:08:10;4.82;;;3.83;;
13102;SDS011;52970;46.752;17.108;2023-03-26T02:10:41;3.55;;;3.17;;
13102;SDS011;52970;46.752;17.108;2023-03-26T02:13:08;4.10;;;3.55;;
13102;SDS011;52970;46.752;17.108;2023-03-26T02:15:34;4.93;;;3.53;;
13102;SDS011;52970;46.752;17.108;2023-03-26T02:17:59;3.92;;;3.60;;
13102;SDS011;52970;46.752;17.108;2023-03-26T02:20:26;4.93;;;3.65;;
13102;SDS011;52970;46.752;17.108;2023-03-26T02:22:54;4.15;;;3.70;;
13102;SDS011;52970;46.752;17.108;2023-03-26T02:25:19;4.28;;;3.60;;
13102;SDS011;52970;46.752;17.108;2023-03-26T02:27:47;4.40;;;3.83;;
13102;SDS011;52970;46.752;17.108;2023-03-26T02:30:16;4.60;;;4.20;;
13102;SDS011;52970;46.752;17.108;2023-03-26T02:32:42;4.03;;;3.65;;
13102;SDS011;52970;46.752;17.108;2023-03-26T02:35:08;5.45;;;3.60;;
13102;SDS011;52970;46.752;17.108;2023-03-26T02:37:34;5.53;;;4.15;;
13102;SDS011;52970;46.752;17.108;2023-03-26T02:39:59;6.03;;;3.95;;
13102;SDS011;52970;46.752;17.108;2023-03-26T02:42:25;4.30;;;3.90;;
13102;SDS011;52970;46.752;17.108;2023-03-26T02:44:50;4.20;;;3.80;;
13102;SDS011;52970;46.752;17.108;2023-03-26T02:47:15;6.03;;;3.70;;
13102;SDS011;52970;46.752;17.108;2023-03-26T02:49:41;4.32;;;4.00;;
13102;SDS011;52970;46.752;17.108;2023-03-26T02:52:06;6.13;;;4.43;;
13102;SDS011;52970;46.752;17.108;2023-03-26T02:54:32;4.50;;;3.97;;
13102;SDS011;52970;46.752;17.108;2023-03-26T02:56:58;7.57;;;3.90;;
13102;SDS011;52970;46.752;17.108;2023-03-26T02:59:23;6.00;;;3.92;;
13102;SDS011;52970;46.752;17.108;2023-03-26T03:01:48;4.40;;;3.97;;
13102;SDS011;52970;46.752;17.108;2023-03-26T03:04:14;7.05;;;4.38;;
13102;SDS011;52970;46.752;17.108;2023-03-26T03:06:39;5.35;;;3.97;;
13102;SDS011;52970;46.752;17.108;2023-03-26T03:09:07;4.00;;;3.40;;
13102;SDS011;52970;46.752;17.108;2023-03-26T03:11:33;5.13;;;4.63;;
13102;SDS011;52970;46.752;17.108;2023-03-26T03:13:59;4.90;;;4.05;;
13102;SDS011;52970;46.752;17.108;2023-03-26T03:16:24;5.80;;;4.13;;
13102;SDS011;52970;46.752;17.108;2023-03-26T03:18:49;5.88;;;3.50;;
13102;SDS011;52970;46.752;17.108;2023-03-26T03:21:20;4.45;;;3.70;;
13102;SDS011;52970;46.752;17.108;2023-03-26T03:23:46;25.60;;;13.38;;
13102;SDS011;52970;46.752;17.108;2023-03-26T03:26:12;22.02;;;11.95;;
13102;SDS011;52970;46.752;17.108;2023-03-26T03:28:38;7.05;;;6.28;;
13102;SDS011;52970;46.752;17.108;2023-03-26T03:31:03;12.38;;;7.63;;
13102;SDS011;52970;46.752;17.108;2023-03-26T03:33:29;8.57;;;6.05;;
13102;SDS011;52970;46.752;17.108;2023-03-26T03:35:54;7.67;;;6.03;;
13102;SDS011;52970;46.752;17.108;2023-03-26T03:38:19;4.90;;;4.28;;
13102;SDS011;52970;46.752;17.108;2023-03-26T03:40:45;4.40;;;4.00;;
13102;SDS011;52970;46.752;17.108;2023-03-26T03:43:10;4.03;;;3.63;;
13102;SDS011;52970;46.752;17.108;2023-03-26T03:45:35;4.22;;;3.83;;
13102;SDS011;52970;46.752;17.108;2023-03-26T03:48:01;4.22;;;3.55;;
13102;SDS011;52970;46.752;17.108;2023-03-26T03:50:26;4.57;;;4.17;;
13102;SDS011;52970;46.752;17.108;2023-03-26T03:52:51;4.90;;;3.90;;
13102;SDS011;52970;46.752;17.108;2023-03-26T03:55:17;4.23;;;3.90;;
13102;SDS011;52970;46.752;17.108;2023-03-26T03:57:42;5.20;;;4.70;;
13102;SDS011;52970;46.752;17.108;2023-03-26T04:00:08;4.87;;;3.93;;
13102;SDS011;52970;46.752;17.108;2023-03-26T04:02:34;4.30;;;3.90;;
13102;SDS011;52970;46.752;17.108;2023-03-26T04:05:00;4.63;;;3.95;;
13102;SDS011;52970;46.752;17.108;2023-03-26T04:07:25;4.43;;;4.03;;
13102;SDS011;52970;46.752;17.108;2023-03-26T04:09:51;4.13;;;3.73;;
13102;SDS011;52970;46.752;17.108;2023-03-26T04:12:17;4.23;;;3.80;;
13102;SDS011;52970;46.752;17.108;2023-03-26T04:14:42;4.33;;;3.93;;
13102;SDS011;52970;46.752;17.108;2023-03-26T04:17:07;4.53;;;4.13;;
13102;SDS011;52970;46.752;17.108;2023-03-26T04:19:33;3.90;;;3.60;;
13102;SDS011;52970;46.752;17.108;2023-03-26T04:21:58;4.77;;;4.13;;
13102;SDS011;52970;46.752;17.108;2023-03-26T04:24:30;6.10;;;4.27;;
13102;SDS011;52970;46.752;17.108;2023-03-26T04:26:58;4.43;;;4.03;;
13102;SDS011;52970;46.752;17.108;2023-03-26T04:29:24;5.20;;;4.70;;
13102;SDS011;52970;46.752;17.108;2023-03-26T04:31:53;4.20;;;3.80;;
13102;SDS011;52970;46.752;17.108;2023-03-26T04:34:22;4.15;;;3.75;;
13102;SDS011;52970;46.752;17.108;2023-03-26T04:36:49;5.47;;;4.33;;
13102;SDS011;52970;46.752;17.108;2023-03-26T04:39:18;4.37;;;3.97;;
13102;SDS011;52970;46.752;17.108;2023-03-26T04:41:45;3.90;;;3.50;;
13102;SDS011;52970;46.752;17.108;2023-03-26T04:44:11;4.40;;;3.97;;
13102;SDS011;52970;46.752;17.108;2023-03-26T04:46:38;4.07;;;3.73;;
13102;SDS011;52970;46.752;17.108;2023-03-26T04:49:07;5.53;;;5.03;;
13102;SDS011;52970;46.752;17.108;2023-03-26T04:51:34;5.30;;;4.10;;
13102;SDS011;52970;46.752;17.108;2023-03-26T04:54:02;5.53;;;3.93;;
13102;SDS011;52970;46.752;17.108;2023-03-26T04:58:57;6.13;;;5.53;;
13102;SDS011;52970;46.752;17.108;2023-03-26T05:01:24;5.77;;;5.17;;
13102;SDS011;52970;46.752;17.108;2023-03-26T05:03:52;6.33;;;5.60;;
13102;SDS011;52970;46.752;17.108;2023-03-26T05:06:18;7.27;;;5.93;;
13102;SDS011;52970;46.752;17.108;2023-03-26T05:08:44;6.50;;;5.90;;
13102;SDS011;52970;46.752;17.108;2023-03-26T05:11:09;7.53;;;6.37;;
13102;SDS011;52970;46.752;17.108;2023-03-26T05:13:35;7.83;;;7.03;;
13102;SDS011;52970;46.752;17.108;2023-03-26T05:16:00;5.83;;;5.07;;
13102;SDS011;52970;46.752;17.108;2023-03-26T05:18:26;4.43;;;4.03;;
13102;SDS011;52970;46.752;17.108;2023-03-26T05:20:52;5.07;;;4.50;;
13102;SDS011;52970;46.752;17.108;2023-03-26T05:23:17;16.70;;;4.87;;
13102;SDS011;52970;46.752;17.108;2023-03-26T05:25:42;12.17;;;5.40;;
13102;SDS011;52970;46.752;17.108;2023-03-26T05:28:07;17.47;;;4.93;;
13102;SDS011;52970;46.752;17.108;2023-03-26T05:30:33;8.23;;;4.90;;
13102;SDS011;52970;46.752;17.108;2023-03-26T05:32:58;5.30;;;4.57;;
13102;SDS011;52970;46.752;17.108;2023-03-26T05:35:23;6.10;;;4.10;;
13102;SDS011;52970;46.752;17.108;2023-03-26T05:37:49;13.07;;;4.80;;
13102;SDS011;52970;46.752;17.108;2023-03-26T05:40:15;6.80;;;4.33;;
13102;SDS011;52970;46.752;17.108;2023-03-26T05:42:41;5.53;;;4.27;;
13102;SDS011;52970;46.752;17.108;2023-03-26T05:45:07;5.17;;;4.67;;
13102;SDS011;52970;46.752;17.108;2023-03-26T05:47:33;4.20;;;3.90;;
13102;SDS011;52970;46.752;17.108;2023-03-26T05:49:58;8.40;;;3.93;;
13102;SDS011;52970;46.752;17.108;2023-03-26T05:52:24;4.63;;;3.20;;
13102;SDS011;52970;46.752;17.108;2023-03-26T05:54:49;4.27;;;3.30;;
13102;SDS011;52970;46.752;17.108;2023-03-26T05:57:15;5.60;;;3.97;;
13102;SDS011;52970;46.752;17.108;2023-03-26T05:59:40;3.47;;;3.17;;
13102;SDS011;52970;46.752;17.108;2023-03-26T06:02:06;3.83;;;3.50;;
13102;SDS011;52970;46.752;17.108;2023-03-26T06:04:31;3.50;;;3.20;;
13102;SDS011;52970;46.752;17.108;2023-03-26T06:06:56;4.00;;;3.60;;
13102;SDS011;52970;46.752;17.108;2023-03-26T06:09:22;3.60;;;3.30;;
13102;SDS011;52970;46.752;17.108;2023-03-26T06:11:48;4.53;;;4.17;;
13102;SDS011;52970;46.752;17.108;2023-03-26T06:14:13;4.87;;;4.47;;
13102;SDS011;52970;46.752;17.108;2023-03-26T06:16:39;5.30;;;4.67;;
13102;SDS011;52970;46.752;17.108;2023-03-26T06:19:04;4.40;;;4.00;;
13102;SDS011;52970;46.752;17.108;2023-03-26T06:21:29;4.33;;;4.00;;
13102;SDS011;52970;46.752;17.108;2023-03-26T06:23:56;6.00;;;4.00;;
13102;SDS011;52970;46.752;17.108;2023-03-26T06:26:22;5.07;;;4.63;;
13102;SDS011;52970;46.752;17.108;2023-03-26T06:28:47;5.00;;;4.57;;
13102;SDS011;52970;46.752;17.108;2023-03-26T06:31:12;7.00;;;4.33;;
13102;SDS011;52970;46.752;17.108;2023-03-26T06:33:37;4.50;;;4.13;;
13102;SDS011;52970;46.752;17.108;2023-03-26T06:36:03;4.57;;;4.17;;
13102;SDS011;52970;46.752;17.108;2023-03-26T06:38:28;5.07;;;4.67;;
13102;SDS011;52970;46.752;17.108;2023-03-26T06:40:53;7.13;;;6.43;;
13102;SDS011;52970;46.752;17.108;2023-03-26T06:43:19;4.93;;;4.53;;
13102;SDS011;52970;46.752;17.108;2023-03-26T06:45:46;5.27;;;4.77;;
13102;SDS011;52970;46.752;17.108;2023-03-26T06:48:13;7.90;;;5.03;;
13102;SDS011;52970;46.752;17.108;2023-03-26T06:50:39;6.70;;;5.00;;
13102;SDS011;52970;46.752;17.108;2023-03-26T06:53:04;6.57;;;5.97;;
13102;SDS011;52970;46.752;17.108;2023-03-26T06:55:30;5.70;;;5.20;;
13102;SDS011;52970;46.752;17.108;2023-03-26T06:57:55;5.87;;;5.37;;
13102;SDS011;52970;46.752;17.108;2023-03-26T07:00:22;6.10;;;5.60;;
13102;SDS011;52970;46.752;17.108;2023-03-26T07:02:47;5.80;;;5.20;;
13102;SDS011;52970;46.752;17.108;2023-03-26T07:05:13;7.13;;;6.43;;
13102;SDS011;52970;46.752;17.108;2023-03-26T07:07:38;7.30;;;6.68;;
13102;SDS011;52970;46.752;17.108;2023-03-26T07:10:04;6.90;;;6.30;;
13102;SDS011;52970;46.752;17.108;2023-03-26T07:12:30;15.07;;;11.33;;
13102;SDS011;52970;46.752;17.108;2023-03-26T07:14:55;8.20;;;7.37;;
13102;SDS011;52970;46.752;17.108;2023-03-26T07:17:20;9.18;;;7.05;;
13102;SDS011;52970;46.752;17.108;2023-03-26T07:19:45;6.63;;;6.03;;
13102;SDS011;52970;46.752;17.108;2023-03-26T07:22:21;6.82;;;6.03;;
13102;SDS011;52970;46.752;17.108;2023-03-26T07:24:47;7.30;;;6.60;;
13102;SDS011;52970;46.752;17.108;2023-03-26T07:29:58;6.97;;;6.30;;
13102;SDS011;52970;46.752;17.108;2023-03-26T07:35:04;6.55;;;5.93;;
13102;SDS011;52970;46.752;17.108;2023-03-26T07:37:34;7.20;;;6.50;;
13102;SDS011;52970;46.752;17.108;2023-03-26T07:42:56;5.93;;;5.40;;
13102;SDS011;52970;46.752;17.108;2023-03-26T07:47:52;6.93;;;6.30;;
13102;SDS011;52970;46.752;17.108;2023-03-26T07:50:19;6.85;;;6.13;;
13102;SDS011;52970;46.752;17.108;2023-03-26T07:52:45;5.95;;;5.43;;
13102;SDS011;52970;46.752;17.108;2023-03-26T07:55:11;6.63;;;6.03;;
13102;SDS011;52970;46.752;17.108;2023-03-26T08:00:32;6.70;;;6.10;;
13102;SDS011;52970;46.752;17.108;2023-03-26T08:05:46;7.05;;;6.45;;
13102;SDS011;52970;46.752;17.108;2023-03-26T08:08:36;6.65;;;6.05;;
13102;SDS011;52970;46.752;17.108;2023-03-26T08:11:26;7.55;;;6.85;;
13102;SDS011;52970;46.752;17.108;2023-03-26T08:18:45;6.43;;;5.75;;
13102;SDS011;52970;46.752;17.108;2023-03-26T08:21:20;6.22;;;5.63;;
13102;SDS011;52970;46.752;17.108;2023-03-26T08:29:00;8.55;;;7.65;;
13102;SDS011;52970;46.752;17.108;2023-03-26T08:31:33;8.32;;;7.47;;
13102;SDS011;52970;46.752;17.108;2023-03-26T08:33:59;7.70;;;6.60;;
13102;SDS011;52970;46.752;17.108;2023-03-26T08:36:25;7.40;;;6.70;;
13102;SDS011;52970;46.752;17.108;2023-03-26T08:38:51;7.03;;;6.40;;
13102;SDS011;52970;46.752;17.108;2023-03-26T08:46:43;6.78;;;6.07;;
13102;SDS011;52970;46.752;17.108;2023-03-26T09:04:09;5.65;;;3.83;;
13102;SDS011;52970;46.752;17.108;2023-03-26T09:25:05;3.72;;;2.72;;
13102;SDS011;52970;46.752;17.108;2023-03-26T09:27:36;3.20;;;2.90;;
13102;SDS011;52970;46.752;17.108;2023-03-26T09:37:28;2.20;;;2.00;;
13102;SDS011;52970;46.752;17.108;2023-03-26T09:40:17;1.92;;;1.83;;
13102;SDS011;52970;46.752;17.108;2023-03-26T09:42:53;2.35;;;2.15;;
13102;SDS011;52970;46.752;17.108;2023-03-26T09:48:30;1.65;;;1.58;;
13102;SDS011;52970;46.752;17.108;2023-03-26T09:53:36;1.60;;;1.50;;
13102;SDS011;52970;46.752;17.108;2023-03-26T09:58:57;1.95;;;1.85;;
13102;SDS011;52970;46.752;17.108;2023-03-26T10:01:29;2.05;;;1.95;;
13102;SDS011;52970;46.752;17.108;2023-03-26T10:04:06;2.03;;;1.60;;
13102;SDS011;52970;46.752;17.108;2023-03-26T10:06:42;1.70;;;1.60;;
13102;SDS011;52970;46.752;17.108;2023-03-26T10:09:19;2.00;;;1.90;;
13102;SDS011;52970;46.752;17.108;2023-03-26T10:14:41;1.90;;;1.80;;
13102;SDS011;52970;46.752;17.108;2023-03-26T10:55:27;1.50;;;1.50;;
13102;SDS011;52970;46.752;17.108;2023-03-26T10:58:02;1.80;;;1.70;;
13102;SDS011;52970;46.752;17.108;2023-03-26T11:00:29;1.70;;;1.60;;
13102;SDS011;52970;46.752;17.108;2023-03-26T11:10:58;1.80;;;1.70;;
13102;SDS011;52970;46.752;17.108;2023-03-26T11:16:03;1.83;;;1.73;;
13102;SDS011;52970;46.752;17.108;2023-03-26T11:23:36;1.70;;;1.60;;
13102;SDS011;52970;46.752;17.108;2023-03-26T11:26:09;1.67;;;1.42;;
13102;SDS011;52970;46.752;17.108;2023-03-26T11:34:12;1.80;;;1.60;;
13102;SDS011;52970;46.752;17.108;2023-03-26T11:36:40;1.63;;;1.52;;
13102;SDS011;52970;46.752;17.108;2023-03-26T11:39:11;1.52;;;1.42;;
13102;SDS011;52970;46.752;17.108;2023-03-26T11:41:38;1.50;;;1.40;;
13102;SDS011;52970;46.752;17.108;2023-03-26T11:46:35;2.08;;;1.52;;
13102;SDS011;52970;46.752;17.108;2023-03-26T11:49:04;1.60;;;1.50;;
13102;SDS011;52970;46.752;17.108;2023-03-26T11:51:33;1.70;;;1.60;;
13102;SDS011;52970;46.752;17.108;2023-03-26T11:53:59;1.40;;;1.40;;
13102;SDS011;52970;46.752;17.108;2023-03-26T12:01:41;2.63;;;1.60;;
13102;SDS011;52970;46.752;17.108;2023-03-26T12:04:12;1.90;;;1.80;;
13102;SDS011;52970;46.752;17.108;2023-03-26T12:06:38;1.70;;;1.60;;
13102;SDS011;52970;46.752;17.108;2023-03-26T12:09:14;1.80;;;1.70;;
13102;SDS011;52970;46.752;17.108;2023-03-26T12:11:40;1.48;;;1.40;;
13102;SDS011;52970;46.752;17.108;2023-03-26T12:14:05;1.90;;;1.73;;
13102;SDS011;52970;46.752;17.108;2023-03-26T12:16:31;1.80;;;1.70;;
13102;SDS011;52970;46.752;17.108;2023-03-26T12:19:05;1.70;;;1.60;;
13102;SDS011;52970;46.752;17.108;2023-03-26T12:21:42;2.13;;;1.90;;
13102;SDS011;52970;46.752;17.108;2023-03-26T12:24:23;2.03;;;1.92;;
13102;SDS011;52970;46.752;17.108;2023-03-26T12:26:49;1.60;;;1.50;;
13102;SDS011;52970;46.752;17.108;2023-03-26T12:29:20;1.95;;;1.85;;
13102;SDS011;52970;46.752;17.108;2023-03-26T12:31:51;1.73;;;1.63;;
13102;SDS011;52970;46.752;17.108;2023-03-26T12:34:19;1.60;;;1.50;;
13102;SDS011;52970;46.752;17.108;2023-03-26T12:36:52;1.58;;;1.48;;
13102;SDS011;52970;46.752;17.108;2023-03-26T12:39:27;1.50;;;1.40;;
13102;SDS011;52970;46.752;17.108;2023-03-26T12:41:55;1.70;;;1.60;;
13102;SDS011;52970;46.752;17.108;2023-03-26T12:44:32;1.35;;;1.30;;
13102;SDS011;52970;46.752;17.108;2023-03-26T12:47:14;2.47;;;1.75;;
13102;SDS011;52970;46.752;17.108;2023-03-26T12:49:41;1.60;;;1.50;;
13102;SDS011;52970;46.752;17.108;2023-03-26T12:57:22;1.33;;;1.27;;
13102;SDS011;52970;46.752;17.108;2023-03-26T13:10:32;1.55;;;1.48;;
13102;SDS011;52970;46.752;17.108;2023-03-26T13:13:16;2.22;;;1.63;;
13102;SDS011;52970;46.752;17.108;2023-03-26T13:26:32;1.70;;;1.60;;
13102;SDS011;52970;46.752;17.108;2023-03-26T13:31:45;1.90;;;1.80;;
13102;SDS011;52970;46.752;17.108;2023-03-26T13:34:21;2.20;;;2.00;;
13102;SDS011;52970;46.752;17.108;2023-03-26T13:37:04;2.20;;;2.00;;
13102;SDS011;52970;46.752;17.108;2023-03-26T13:47:28;2.10;;;2.00;;
13102;SDS011;52970;46.752;17.108;2023-03-26T13:52:32;2.50;;;2.30;;
13102;SDS011;52970;46.752;17.108;2023-03-26T13:57:28;2.80;;;2.55;;
13102;SDS011;52970;46.752;17.108;2023-03-26T13:59:59;4.63;;;4.10;;
13102;SDS011;52970;46.752;17.108;2023-03-26T14:02:41;3.60;;;3.30;;
13102;SDS011;52970;46.752;17.108;2023-03-26T14:05:23;2.80;;;2.60;;
13102;SDS011;52970;46.752;17.108;2023-03-26T14:08:00;2.60;;;2.33;;
13102;SDS011;52970;46.752;17.108;2023-03-26T14:10:28;2.70;;;2.50;;
13102;SDS011;52970;46.752;17.108;2023-03-26T14:36:24;2.63;;;2.17;;
13102;SDS011;52970;46.752;17.108;2023-03-26T14:38:59;5.57;;;2.80;;
13102;SDS011;52970;46.752;17.108;2023-03-26T14:51:56;3.42;;;3.00;;
13102;SDS011;52970;46.752;17.108;2023-03-26T14:54:24;5.15;;;2.90;;
13102;SDS011;52970;46.752;17.108;2023-03-26T14:59:41;3.65;;;3.00;;
13102;SDS011;52970;46.752;17.108;2023-03-26T15:41:58;4.25;;;3.85;;
13102;SDS011;52970;46.752;17.108;2023-03-26T15:44:32;5.63;;;3.95;;
13102;SDS011;52970;46.752;17.108;2023-03-26T15:47:18;5.65;;;4.40;;
13102;SDS011;52970;46.752;17.108;2023-03-26T15:49:54;7.40;;;5.75;;
13102;SDS011;52970;46.752;17.108;2023-03-26T15:55:02;6.03;;;4.68;;
13102;SDS011;52970;46.752;17.108;2023-03-26T15:57:40;5.93;;;4.20;;
13102;SDS011;52970;46.752;17.108;2023-03-26T16:15:41;4.53;;;4.10;;
13102;SDS011;52970;46.752;17.108;2023-03-26T16:20:42;4.38;;;3.97;;
13102;SDS011;52970;46.752;17.108;2023-03-26T16:33:36;5.25;;;4.55;;
13102;SDS011;52970;46.752;17.108;2023-03-26T16:38:45;6.07;;;4.43;;
13102;SDS011;52970;46.752;17.108;2023-03-26T16:54:54;13.05;;;9.00;;
13102;SDS011;52970;46.752;17.108;2023-03-26T16:58:14;12.98;;;10.25;;
13102;SDS011;52970;46.752;17.108;2023-03-26T17:08:18;5.40;;;4.38;;
13102;SDS011;52970;46.752;17.108;2023-03-26T17:10:55;6.30;;;4.35;;
13102;SDS011;52970;46.752;17.108;2023-03-26T17:21:30;5.30;;;4.80;;
13102;SDS011;52970;46.752;17.108;2023-03-26T17:24:02;5.38;;;4.63;;
13102;SDS011;52970;46.752;17.108;2023-03-26T17:29:00;5.10;;;4.45;;
13102;SDS011;52970;46.752;17.108;2023-03-26T17:36:54;6.80;;;3.90;;
13102;SDS011;52970;46.752;17.108;2023-03-26T17:39:46;5.10;;;3.90;;
13102;SDS011;52970;46.752;17.108;2023-03-26T17:44:40;4.05;;;3.47;;
13102;SDS011;52970;46.752;17.108;2023-03-26T17:49:53;5.82;;;4.20;;
13102;SDS011;52970;46.752;17.108;2023-03-26T17:52:23;5.20;;;3.80;;
13102;SDS011;52970;46.752;17.108;2023-03-26T17:54:50;5.32;;;4.78;;
13102;SDS011;52970;46.752;17.108;2023-03-26T17:59:45;8.35;;;6.22;;
13102;SDS011;52970;46.752;17.108;2023-03-26T18:02:15;6.43;;;4.43;;
13102;SDS011;52970;46.752;17.108;2023-03-26T18:04:43;5.38;;;4.22;;
13102;SDS011;52970;46.752;17.108;2023-03-26T18:07:16;4.13;;;3.60;;
13102;SDS011;52970;46.752;17.108;2023-03-26T18:12:30;6.40;;;4.97;;
13102;SDS011;52970;46.752;17.108;2023-03-26T18:17:45;6.97;;;5.85;;
13102;SDS011;52970;46.752;17.108;2023-03-26T18:20:21;7.72;;;6.18;;
13102;SDS011;52970;46.752;17.108;2023-03-26T18:22:47;7.97;;;5.68;;
13102;SDS011;52970;46.752;17.108;2023-03-26T18:25:27;7.63;;;5.47;;
13102;SDS011;52970;46.752;17.108;2023-03-26T18:27:54;6.68;;;4.35;;
13102;SDS011;52970;46.752;17.108;2023-03-26T18:30:22;5.47;;;3.75;;
13102;SDS011;52970;46.752;17.108;2023-03-26T18:35:22;1.60;;;1.50;;
13102;SDS011;52970;46.752;17.108;2023-03-26T18:37:49;4.72;;;2.15;;
13102;SDS011;52970;46.752;17.108;2023-03-26T18:40:17;4.13;;;2.90;;
13102;SDS011;52970;46.752;17.108;2023-03-26T18:42:49;4.78;;;4.20;;
13102;SDS011;52970;46.752;17.108;2023-03-26T18:45:22;4.75;;;2.90;;
13102;SDS011;52970;46.752;17.108;2023-03-26T18:47:56;3.53;;;3.22;;
13102;SDS011;52970;46.752;17.108;2023-03-26T18:50:26;2.60;;;2.40;;
13102;SDS011;52970;46.752;17.108;2023-03-26T18:52:52;3.80;;;2.17;;
13102;SDS011;52970;46.752;17.108;2023-03-26T18:55:20;4.05;;;1.95;;
13102;SDS011;52970;46.752;17.108;2023-03-26T18:57:45;2.75;;;1.90;;
13102;SDS011;52970;46.752;17.108;2023-03-26T19:00:18;2.45;;;1.67;;
13102;SDS011;52970;46.752;17.108;2023-03-26T19:02:46;2.17;;;1.70;;
13102;SDS011;52970;46.752;17.108;2023-03-26T19:05:13;2.50;;;1.90;;
13102;SDS011;52970;46.752;17.108;2023-03-26T19:07:39;2.30;;;2.20;;
13102;SDS011;52970;46.752;17.108;2023-03-26T19:10:06;4.18;;;3.70;;
13102;SDS011;52970;46.752;17.108;2023-03-26T19:12:34;44.17;;;34.92;;
13102;SDS011;52970;46.752;17.108;2023-03-26T19:15:05;44.75;;;38.65;;
13102;SDS011;52970;46.752;17.108;2023-03-26T19:17:43;24.02;;;17.17;;
13102;SDS011;52970;46.752;17.108;2023-03-26T19:20:20;31.75;;;27.23;;
13102;SDS011;52970;46.752;17.108;2023-03-26T19:22:48;46.60;;;39.72;;
13102;SDS011;52970;46.752;17.108;2023-03-26T19:25:19;37.95;;;30.33;;
13102;SDS011;52970;46.752;17.108;2023-03-26T19:27:46;42.97;;;33.85;;
13102;SDS011;52970;46.752;17.108;2023-03-26T19:30:17;36.53;;;31.02;;
13102;SDS011;52970;46.752;17.108;2023-03-26T19:32:51;33.03;;;27.20;;
13102;SDS011;52970;46.752;17.108;2023-03-26T19:35:21;32.15;;;25.77;;
13102;SDS011;52970;46.752;17.108;2023-03-26T19:37:50;21.08;;;15.35;;
13102;SDS011;52970;46.752;17.108;2023-03-26T19:40:19;35.10;;;27.20;;
13102;SDS011;52970;46.752;17.108;2023-03-26T19:42:45;22.02;;;18.33;;
13102;SDS011;52970;46.752;17.108;2023-03-26T19:45:19;18.85;;;16.05;;
13102;SDS011;52970;46.752;17.108;2023-03-26T19:47:47;18.02;;;14.07;;
13102;SDS011;52970;46.752;17.108;2023-03-26T19:52:48;9.30;;;8.27;;
13102;SDS011;52970;46.752;17.108;2023-03-26T19:55:28;8.52;;;7.45;;
13102;SDS011;52970;46.752;17.108;2023-03-26T19:57:53;4.90;;;4.43;;
13102;SDS011;52970;46.752;17.108;2023-03-26T20:00:19;6.65;;;5.90;;
13102;SDS011;52970;46.752;17.108;2023-03-26T20:02:46;6.30;;;5.13;;
13102;SDS011;52970;46.752;17.108;2023-03-26T20:05:20;5.10;;;4.60;;
13102;SDS011;52970;46.752;17.108;2023-03-26T20:07:55;2.75;;;2.10;;
13102;SDS011;52970;46.752;17.108;2023-03-26T20:10:21;3.85;;;3.60;;
13102;SDS011;52970;46.752;17.108;2023-03-26T20:12:47;2.10;;;2.00;;
13102;SDS011;52970;46.752;17.108;2023-03-26T20:17:41;2.75;;;2.55;;
13102;SDS011;52970;46.752;17.108;2023-03-26T20:20:07;1.67;;;1.58;;
13102;SDS011;52970;46.752;17.108;2023-03-26T20:22:36;1.88;;;1.77;;
13102;SDS011;52970;46.752;17.108;2023-03-26T20:25:10;9.95;;;6.50;;
13102;SDS011;52970;46.752;17.108;2023-03-26T20:27:39;6.18;;;5.57;;
13102;SDS011;52970;46.752;17.108;2023-03-26T20:30:05;4.90;;;4.40;;
13102;SDS011;52970;46.752;17.108;2023-03-26T20:32:31;10.23;;;8.38;;
13102;SDS011;52970;46.752;17.108;2023-03-26T20:34:58;7.75;;;6.95;;
13102;SDS011;52970;46.752;17.108;2023-03-26T20:37:26;9.95;;;8.70;;
13102;SDS011;52970;46.752;17.108;2023-03-26T20:39:51;9.25;;;8.35;;
13102;SDS011;52970;46.752;17.108;2023-03-26T20:42:16;10.93;;;8.80;;
13102;SDS011;52970;46.752;17.108;2023-03-26T20:44:42;9.68;;;8.10;;
13102;SDS011;52970;46.752;17.108;2023-03-26T20:47:09;8.48;;;6.68;;
13102;SDS011;52970;46.752;17.108;2023-03-26T20:49:34;9.27;;;7.95;;
13102;SDS011;52970;46.752;17.108;2023-03-26T20:52:00;8.15;;;7.15;;
13102;SDS011;52970;46.752;17.108;2023-03-26T20:54:25;9.95;;;7.72;;
13102;SDS011;52970;46.752;17.108;2023-03-26T20:56:51;9.02;;;7.18;;
13102;SDS011;52970;46.752;17.108;2023-03-26T20:59:18;8.85;;;7.30;;
13102;SDS011;52970;46.752;17.108;2023-03-26T21:01:45;11.40;;;7.90;;
13102;SDS011;52970;46.752;17.108;2023-03-26T21:04:14;7.68;;;5.95;;
13102;SDS011;52970;46.752;17.108;2023-03-26T21:06:40;61.05;;;27.45;;